sensor_id;sensor_type;location;lat;lon;timestamp;P1;durP1;ratioP1;P2;durP2;ratioP2
15012;SDS011;7603;49.432;11.418;2024-03-23T00:55:58;2.03;;;1.83;;
15012;SDS011;7603;49.432;11.418;2024-03-23T00:58:24;3.72;;;2.53;;
15012;SDS011;7603;49.432;11.418;2024-03-23T01:00:50;1.98;;;1.88;;
15012;SDS011;7603;49.432;11.418;2024-03-23T01:03:16;1.77;;;1.67;;
15012;SDS011;7603;49.432;11.418;2024-03-23T01:05:42;2.83;;;2.25;;
15012;SDS011;7603;49.432;11.418;2024-03-23T01:08:07;3.10;;;2.80;;
15012;SDS011;7603;49.432;11.418;2024-03-23T01:10:33;4.57;;;2.25;;
15012;SDS011;7603;49.432;11.418;2024-03-23T01:12:59;1.70;;;1.60;;
15012;SDS011;7603;49.432;11.418;2024-03-23T01:15:25;2.28;;;2.00;;
15012;SDS011;7603;49.432;11.418;2024-03-23T01:17:50;3.58;;;2.78;;
15012;SDS011;7603;49.432;11.418;2024-03-23T01:20:16;2.05;;;1.85;;
15012;SDS011;7603;49.432;11.418;2024-03-23T01:22:42;1.60;;;1.50;;
15012;SDS011;7603;49.432;11.418;2024-03-23T01:25:08;3.65;;;1.70;;
15012;SDS011;7603;49.432;11.418;2024-03-23T01:27:34;2.85;;;2.67;;
15012;SDS011;7603;49.432;11.418;2024-03-23T01:29:59;1.95;;;1.85;;
15012;SDS011;7603;49.432;11.418;2024-03-23T01:32:25;3.03;;;2.72;;
15012;SDS011;7603;49.432;11.418;2024-03-23T01:34:51;4.88;;;2.08;;
15012;SDS011;7603;49.432;11.418;2024-03-23T01:37:17;6.38;;;2.90;;
15012;SDS011;7603;49.432;11.418;2024-03-23T01:39:43;4.72;;;1.73;;
15012;SDS011;7603;49.432;11.418;2024-03-23T01:42:09;3.13;;;2.83;;
15012;SDS011;7603;49.432;11.418;2024-03-23T01:44:34;2.13;;;1.98;;
15012;SDS011;7603;49.432;11.418;2024-03-23T01:47:00;10.65;;;3.35;;
15012;SDS011;7603;49.432;11.418;2024-03-23T01:49:26;5.32;;;3.55;;
15012;SDS011;7603;49.432;11.418;2024-03-23T01:51:52;3.10;;;1.98;;
15012;SDS011;7603;49.432;11.418;2024-03-23T01:54:18;1.25;;;1.23;;
15012;SDS011;7603;49.432;11.418;2024-03-23T01:56:44;2.50;;;1.73;;
15012;SDS011;7603;49.432;11.418;2024-03-23T01:59:10;1.40;;;1.30;;
15012;SDS011;7603;49.432;11.418;2024-03-23T02:01:36;2.00;;;1.90;;
15012;SDS011;7603;49.432;11.418;2024-03-23T02:04:02;2.45;;;1.45;;
15012;SDS011;7603;49.432;11.418;2024-03-23T02:06:28;3.38;;;1.70;;
15012;SDS011;7603;49.432;11.418;2024-03-23T02:08:54;2.95;;;2.55;;
15012;SDS011;7603;49.432;11.418;2024-03-23T02:11:20;1.60;;;1.50;;
15012;SDS011;7603;49.432;11.418;2024-03-23T02:13:46;2.08;;;1.98;;
15012;SDS011;7603;49.432;11.418;2024-03-23T02:16:12;2.55;;;2.25;;
15012;SDS011;7603;49.432;11.418;2024-03-23T02:18:40;2.67;;;2.10;;
15012;SDS011;7603;49.432;11.418;2024-03-23T02:21:06;1.45;;;1.35;;
15012;SDS011;7603;49.432;11.418;2024-03-23T02:23:32;2.00;;;1.90;;
15012;SDS011;7603;49.432;11.418;2024-03-23T02:25:57;4.18;;;3.05;;
15012;SDS011;7603;49.432;11.418;2024-03-23T02:28:23;2.05;;;1.95;;
15012;SDS011;7603;49.432;11.418;2024-03-23T02:30:49;6.97;;;2.22;;
15012;SDS011;7603;49.432;11.418;2024-03-23T02:33:15;2.70;;;2.50;;
15012;SDS011;7603;49.432;11.418;2024-03-23T02:35:41;2.70;;;2.58;;
15012;SDS011;7603;49.432;11.418;2024-03-23T02:38:08;7.18;;;5.90;;
15012;SDS011;7603;49.432;11.418;2024-03-23T02:40:34;2.83;;;2.63;;
15012;SDS011;7603;49.432;11.418;2024-03-23T02:43:02;3.05;;;2.83;;
15012;SDS011;7603;49.432;11.418;2024-03-23T02:45:28;1.58;;;1.48;;
15012;SDS011;7603;49.432;11.418;2024-03-23T02:47:54;2.25;;;2.05;;
15012;SDS011;7603;49.432;11.418;2024-03-23T02:50:20;2.33;;;2.22;;
15012;SDS011;7603;49.432;11.418;2024-03-23T02:52:47;2.58;;;1.88;;
15012;SDS011;7603;49.432;11.418;2024-03-23T02:55:13;2.45;;;2.22;;
15012;SDS011;7603;49.432;11.418;2024-03-23T02:57:40;1.80;;;1.70;;
15012;SDS011;7603;49.432;11.418;2024-03-23T03:00:06;3.08;;;1.95;;
15012;SDS011;7603;49.432;11.418;2024-03-23T03:02:32;1.58;;;1.55;;
15012;SDS011;7603;49.432;11.418;2024-03-23T03:04:58;3.92;;;2.50;;
15012;SDS011;7603;49.432;11.418;2024-03-23T03:07:24;1.95;;;1.85;;
15012;SDS011;7603;49.432;11.418;2024-03-23T03:09:50;1.88;;;1.77;;
15012;SDS011;7603;49.432;11.418;2024-03-23T03:12:16;1.65;;;1.55;;
15012;SDS011;7603;49.432;11.418;2024-03-23T03:14:42;1.90;;;1.65;;
15012;SDS011;7603;49.432;11.418;2024-03-23T03:17:08;2.35;;;2.13;;
15012;SDS011;7603;49.432;11.418;2024-03-23T03:19:33;1.45;;;1.38;;
15012;SDS011;7603;49.432;11.418;2024-03-23T03:21:59;2.13;;;2.03;;
15012;SDS011;7603;49.432;11.418;2024-03-23T03:24:25;2.15;;;1.90;;
15012;SDS011;7603;49.432;11.418;2024-03-23T03:26:51;2.25;;;2.15;;
15012;SDS011;7603;49.432;11.418;2024-03-23T03:29:17;2.20;;;2.10;;
15012;SDS011;7603;49.432;11.418;2024-03-23T03:31:43;4.88;;;3.03;;
15012;SDS011;7603;49.432;11.418;2024-03-23T03:34:09;2.00;;;1.80;;
15012;SDS011;7603;49.432;11.418;2024-03-23T03:36:35;2.83;;;2.22;;
15012;SDS011;7603;49.432;11.418;2024-03-23T03:39:01;4.22;;;1.92;;
15012;SDS011;7603;49.432;11.418;2024-03-23T03:41:31;2.53;;;2.38;;
15012;SDS011;7603;49.432;11.418;2024-03-23T03:43:56;2.65;;;2.45;;
15012;SDS011;7603;49.432;11.418;2024-03-23T03:46:26;2.83;;;1.77;;
15012;SDS011;7603;49.432;11.418;2024-03-23T03:48:55;3.08;;;2.80;;
15012;SDS011;7603;49.432;11.418;2024-03-23T03:51:20;2.20;;;2.05;;
15012;SDS011;7603;49.432;11.418;2024-03-23T03:53:46;2.63;;;2.22;;
15012;SDS011;7603;49.432;11.418;2024-03-23T03:56:12;6.05;;;2.65;;
15012;SDS011;7603;49.432;11.418;2024-03-23T03:58:38;4.78;;;3.65;;
15012;SDS011;7603;49.432;11.418;2024-03-23T04:01:05;4.47;;;2.13;;
15012;SDS011;7603;49.432;11.418;2024-03-23T04:03:31;2.40;;;2.20;;
15012;SDS011;7603;49.432;11.418;2024-03-23T04:05:56;8.32;;;3.80;;
15012;SDS011;7603;49.432;11.418;2024-03-23T04:08:23;6.20;;;2.47;;
15012;SDS011;7603;49.432;11.418;2024-03-23T04:10:49;10.95;;;5.22;;
15012;SDS011;7603;49.432;11.418;2024-03-23T04:13:15;8.32;;;3.88;;
15012;SDS011;7603;49.432;11.418;2024-03-23T04:15:41;21.92;;;5.53;;
15012;SDS011;7603;49.432;11.418;2024-03-23T04:18:08;25.15;;;9.65;;
15012;SDS011;7603;49.432;11.418;2024-03-23T04:20:34;3.90;;;3.53;;
15012;SDS011;7603;49.432;11.418;2024-03-23T04:22:59;5.95;;;3.70;;
15012;SDS011;7603;49.432;11.418;2024-03-23T04:25:25;6.85;;;2.78;;
15012;SDS011;7603;49.432;11.418;2024-03-23T04:27:51;5.30;;;3.30;;
15012;SDS011;7603;49.432;11.418;2024-03-23T04:30:17;2.63;;;2.42;;
15012;SDS011;7603;49.432;11.418;2024-03-23T04:32:44;1.52;;;1.48;;
15012;SDS011;7603;49.432;11.418;2024-03-23T04:35:10;2.53;;;2.33;;
15012;SDS011;7603;49.432;11.418;2024-03-23T04:37:36;2.40;;;2.20;;
15012;SDS011;7603;49.432;11.418;2024-03-23T04:40:03;1.60;;;1.52;;
15012;SDS011;7603;49.432;11.418;2024-03-23T04:42:29;5.47;;;2.75;;
15012;SDS011;7603;49.432;11.418;2024-03-23T04:44:56;1.55;;;1.45;;
15012;SDS011;7603;49.432;11.418;2024-03-23T04:47:22;2.03;;;1.92;;
15012;SDS011;7603;49.432;11.418;2024-03-23T04:49:48;2.72;;;2.53;;
15012;SDS011;7603;49.432;11.418;2024-03-23T04:52:14;2.58;;;2.38;;
15012;SDS011;7603;49.432;11.418;2024-03-23T04:54:41;2.38;;;2.17;;
15012;SDS011;7603;49.432;11.418;2024-03-23T04:57:07;3.13;;;1.50;;
15012;SDS011;7603;49.432;11.418;2024-03-23T04:59:33;2.33;;;2.15;;
15012;SDS011;7603;49.432;11.418;2024-03-23T05:01:59;2.05;;;1.88;;
15012;SDS011;7603;49.432;11.418;2024-03-23T05:04:25;1.27;;;1.27;;
15012;SDS011;7603;49.432;11.418;2024-03-23T05:06:51;1.75;;;1.65;;
15012;SDS011;7603;49.432;11.418;2024-03-23T05:09:17;4.22;;;2.10;;
15012;SDS011;7603;49.432;11.418;2024-03-23T05:11:43;1.75;;;1.65;;
15012;SDS011;7603;49.432;11.418;2024-03-23T05:14:08;2.35;;;2.25;;
15012;SDS011;7603;49.432;11.418;2024-03-23T05:16:36;3.72;;;2.13;;
15012;SDS011;7603;49.432;11.418;2024-03-23T05:19:02;1.98;;;1.88;;
15012;SDS011;7603;49.432;11.418;2024-03-23T05:21:28;1.98;;;1.48;;
15012;SDS011;7603;49.432;11.418;2024-03-23T05:23:54;1.77;;;1.65;;
15012;SDS011;7603;49.432;11.418;2024-03-23T05:26:21;2.88;;;1.88;;
15012;SDS011;7603;49.432;11.418;2024-03-23T05:28:47;2.28;;;1.83;;
15012;SDS011;7603;49.432;11.418;2024-03-23T05:31:22;1.58;;;1.48;;
15012;SDS011;7603;49.432;11.418;2024-03-23T05:33:49;2.83;;;1.70;;
15012;SDS011;7603;49.432;11.418;2024-03-23T05:36:14;1.73;;;1.63;;
15012;SDS011;7603;49.432;11.418;2024-03-23T05:38:40;1.33;;;1.10;;
15012;SDS011;7603;49.432;11.418;2024-03-23T05:41:06;1.10;;;1.10;;
15012;SDS011;7603;49.432;11.418;2024-03-23T05:43:32;0.95;;;0.93;;
15012;SDS011;7603;49.432;11.418;2024-03-23T05:45:59;1.30;;;1.27;;
15012;SDS011;7603;49.432;11.418;2024-03-23T05:48:26;1.25;;;1.15;;
15012;SDS011;7603;49.432;11.418;2024-03-23T05:50:53;1.30;;;1.30;;
15012;SDS011;7603;49.432;11.418;2024-03-23T05:53:19;1.23;;;1.23;;
15012;SDS011;7603;49.432;11.418;2024-03-23T05:55:45;2.72;;;1.58;;
15012;SDS011;7603;49.432;11.418;2024-03-23T05:58:15;1.80;;;1.70;;
15012;SDS011;7603;49.432;11.418;2024-03-23T06:00:43;1.67;;;1.58;;
15012;SDS011;7603;49.432;11.418;2024-03-23T06:03:09;1.67;;;1.58;;
15012;SDS011;7603;49.432;11.418;2024-03-23T06:05:38;1.58;;;1.33;;
15012;SDS011;7603;49.432;11.418;2024-03-23T06:08:04;1.50;;;1.40;;
15012;SDS011;7603;49.432;11.418;2024-03-23T06:10:31;1.33;;;1.30;;
15012;SDS011;7603;49.432;11.418;2024-03-23T06:12:57;4.63;;;1.35;;
15012;SDS011;7603;49.432;11.418;2024-03-23T06:15:24;1.27;;;1.27;;
15012;SDS011;7603;49.432;11.418;2024-03-23T06:17:50;2.08;;;1.55;;
15012;SDS011;7603;49.432;11.418;2024-03-23T06:20:16;1.45;;;0.95;;
15012;SDS011;7603;49.432;11.418;2024-03-23T06:22:41;0.85;;;0.85;;
15012;SDS011;7603;49.432;11.418;2024-03-23T06:25:07;1.10;;;1.10;;
15012;SDS011;7603;49.432;11.418;2024-03-23T06:27:33;0.82;;;0.82;;
15012;SDS011;7603;49.432;11.418;2024-03-23T06:30:00;1.08;;;1.08;;
15012;SDS011;7603;49.432;11.418;2024-03-23T06:32:27;0.88;;;0.88;;
15012;SDS011;7603;49.432;11.418;2024-03-23T06:34:56;2.13;;;1.77;;
15012;SDS011;7603;49.432;11.418;2024-03-23T06:37:22;2.00;;;1.88;;
15012;SDS011;7603;49.432;11.418;2024-03-23T06:39:48;0.90;;;0.90;;
15012;SDS011;7603;49.432;11.418;2024-03-23T06:42:14;1.17;;;1.17;;
15012;SDS011;7603;49.432;11.418;2024-03-23T06:44:40;0.63;;;0.63;;
15012;SDS011;7603;49.432;11.418;2024-03-23T06:47:06;0.73;;;0.73;;
15012;SDS011;7603;49.432;11.418;2024-03-23T06:49:32;2.60;;;1.35;;
15012;SDS011;7603;49.432;11.418;2024-03-23T06:51:58;1.70;;;1.60;;
15012;SDS011;7603;49.432;11.418;2024-03-23T06:54:24;1.23;;;1.23;;
15012;SDS011;7603;49.432;11.418;2024-03-23T06:56:50;2.17;;;1.60;;
15012;SDS011;7603;49.432;11.418;2024-03-23T06:59:15;1.42;;;1.33;;
15012;SDS011;7603;49.432;11.418;2024-03-23T07:01:41;1.30;;;1.30;;
15012;SDS011;7603;49.432;11.418;2024-03-23T07:04:07;0.90;;;0.90;;
15012;SDS011;7603;49.432;11.418;2024-03-23T07:06:33;1.70;;;1.60;;
15012;SDS011;7603;49.432;11.418;2024-03-23T07:08:59;1.42;;;1.42;;
15012;SDS011;7603;49.432;11.418;2024-03-23T07:11:24;1.75;;;1.58;;
15012;SDS011;7603;49.432;11.418;2024-03-23T07:13:51;1.00;;;1.00;;
15012;SDS011;7603;49.432;11.418;2024-03-23T07:16:19;1.13;;;1.02;;
15012;SDS011;7603;49.432;11.418;2024-03-23T07:18:45;2.55;;;1.83;;
15012;SDS011;7603;49.432;11.418;2024-03-23T07:21:11;1.27;;;1.27;;
15012;SDS011;7603;49.432;11.418;2024-03-23T07:23:37;1.73;;;1.48;;
15012;SDS011;7603;49.432;11.418;2024-03-23T07:26:03;1.52;;;1.52;;
15012;SDS011;7603;49.432;11.418;2024-03-23T07:28:30;0.85;;;0.85;;
15012;SDS011;7603;49.432;11.418;2024-03-23T07:31:07;1.02;;;1.02;;
15012;SDS011;7603;49.432;11.418;2024-03-23T07:33:41;1.33;;;1.33;;
15012;SDS011;7603;49.432;11.418;2024-03-23T07:36:08;1.52;;;1.42;;
15012;SDS011;7603;49.432;11.418;2024-03-23T07:38:33;1.63;;;1.52;;
15012;SDS011;7603;49.432;11.418;2024-03-23T07:41:05;2.33;;;2.03;;
15012;SDS011;7603;49.432;11.418;2024-03-23T07:43:32;1.25;;;1.25;;
15012;SDS011;7603;49.432;11.418;2024-03-23T07:45:58;3.13;;;1.77;;
15012;SDS011;7603;49.432;11.418;2024-03-23T08:03:23;2.42;;;2.08;;
15012;SDS011;7603;49.432;11.418;2024-03-23T08:05:49;0.70;;;0.70;;
15012;SDS011;7603;49.432;11.418;2024-03-23T08:08:15;3.17;;;1.27;;
15012;SDS011;7603;49.432;11.418;2024-03-23T08:10:48;2.22;;;2.05;;
15012;SDS011;7603;49.432;11.418;2024-03-23T08:13:19;3.55;;;1.88;;
15012;SDS011;7603;49.432;11.418;2024-03-23T08:15:45;1.33;;;1.30;;
15012;SDS011;7603;49.432;11.418;2024-03-23T08:18:12;1.83;;;1.55;;
15012;SDS011;7603;49.432;11.418;2024-03-23T08:20:38;0.98;;;0.98;;
15012;SDS011;7603;49.432;11.418;2024-03-23T08:23:07;1.20;;;0.73;;
15012;SDS011;7603;49.432;11.418;2024-03-23T08:25:34;4.45;;;1.80;;
15012;SDS011;7603;49.432;11.418;2024-03-23T08:28:01;1.35;;;1.27;;
15012;SDS011;7603;49.432;11.418;2024-03-23T08:30:27;1.42;;;1.42;;
15012;SDS011;7603;49.432;11.418;2024-03-23T08:32:54;0.80;;;0.80;;
15012;SDS011;7603;49.432;11.418;2024-03-23T08:35:20;1.38;;;1.30;;
15012;SDS011;7603;49.432;11.418;2024-03-23T08:37:46;1.27;;;1.25;;
15012;SDS011;7603;49.432;11.418;2024-03-23T08:40:12;2.55;;;1.05;;
15012;SDS011;7603;49.432;11.418;2024-03-23T08:42:38;1.02;;;1.02;;
15012;SDS011;7603;49.432;11.418;2024-03-23T08:45:04;1.25;;;1.25;;
15012;SDS011;7603;49.432;11.418;2024-03-23T08:47:34;2.00;;;1.40;;
15012;SDS011;7603;49.432;11.418;2024-03-23T08:50:00;1.05;;;1.05;;
15012;SDS011;7603;49.432;11.418;2024-03-23T08:52:26;1.77;;;1.67;;
15012;SDS011;7603;49.432;11.418;2024-03-23T08:54:54;1.23;;;1.23;;
15012;SDS011;7603;49.432;11.418;2024-03-23T08:57:22;1.25;;;1.15;;
15012;SDS011;7603;49.432;11.418;2024-03-23T08:59:48;1.80;;;1.65;;
15012;SDS011;7603;49.432;11.418;2024-03-23T09:02:14;0.95;;;0.90;;
15012;SDS011;7603;49.432;11.418;2024-03-23T09:04:40;1.25;;;1.20;;
15012;SDS011;7603;49.432;11.418;2024-03-23T09:07:06;1.02;;;1.02;;
15012;SDS011;7603;49.432;11.418;2024-03-23T09:09:32;1.23;;;1.00;;
15012;SDS011;7603;49.432;11.418;2024-03-23T09:11:57;0.57;;;0.57;;
15012;SDS011;7603;49.432;11.418;2024-03-23T09:14:23;0.50;;;0.50;;
15012;SDS011;7603;49.432;11.418;2024-03-23T09:16:49;1.33;;;0.85;;
15012;SDS011;7603;49.432;11.418;2024-03-23T09:19:16;0.82;;;0.82;;
15012;SDS011;7603;49.432;11.418;2024-03-23T09:21:43;0.50;;;0.50;;
15012;SDS011;7603;49.432;11.418;2024-03-23T09:24:09;0.65;;;0.65;;
15012;SDS011;7603;49.432;11.418;2024-03-23T09:26:34;1.13;;;1.08;;
15012;SDS011;7603;49.432;11.418;2024-03-23T09:29:00;0.57;;;0.57;;
15012;SDS011;7603;49.432;11.418;2024-03-23T09:31:26;0.68;;;0.68;;
15012;SDS011;7603;49.432;11.418;2024-03-23T09:33:52;0.32;;;0.32;;
15012;SDS011;7603;49.432;11.418;2024-03-23T09:36:18;0.77;;;0.77;;
15012;SDS011;7603;49.432;11.418;2024-03-23T09:38:44;0.45;;;0.45;;
15012;SDS011;7603;49.432;11.418;2024-03-23T09:41:09;1.15;;;0.90;;
15012;SDS011;7603;49.432;11.418;2024-03-23T09:43:35;0.68;;;0.68;;
15012;SDS011;7603;49.432;11.418;2024-03-23T09:46:01;0.60;;;0.60;;
15012;SDS011;7603;49.432;11.418;2024-03-23T09:48:28;0.40;;;0.40;;
15012;SDS011;7603;49.432;11.418;2024-03-23T09:50:54;0.63;;;0.63;;
15012;SDS011;7603;49.432;11.418;2024-03-23T09:53:20;0.47;;;0.47;;
15012;SDS011;7603;49.432;11.418;2024-03-23T09:55:47;0.60;;;0.60;;
15012;SDS011;7603;49.432;11.418;2024-03-23T09:58:17;1.00;;;0.82;;
15012;SDS011;7603;49.432;11.418;2024-03-23T10:00:43;1.02;;;1.02;;
15012;SDS011;7603;49.432;11.418;2024-03-23T10:03:10;1.17;;;1.17;;
15012;SDS011;7603;49.432;11.418;2024-03-23T10:05:36;1.10;;;1.10;;
15012;SDS011;7603;49.432;11.418;2024-03-23T10:10:44;0.63;;;0.63;;
15012;SDS011;7603;49.432;11.418;2024-03-23T10:13:10;0.65;;;0.65;;
15012;SDS011;7603;49.432;11.418;2024-03-23T10:15:40;0.30;;;0.30;;
15012;SDS011;7603;49.432;11.418;2024-03-23T10:18:18;0.52;;;0.52;;
15012;SDS011;7603;49.432;11.418;2024-03-23T10:21:27;0.80;;;0.65;;
15012;SDS011;7603;49.432;11.418;2024-03-23T10:23:36;1.45;;;1.45;;
15012;SDS011;7603;49.432;11.418;2024-03-23T10:26:13;1.40;;;0.82;;
15012;SDS011;7603;49.432;11.418;2024-03-23T10:28:59;0.38;;;0.38;;
15012;SDS011;7603;49.432;11.418;2024-03-23T10:31:26;0.68;;;0.68;;
15012;SDS011;7603;49.432;11.418;2024-03-23T10:33:53;0.40;;;0.40;;
15012;SDS011;7603;49.432;11.418;2024-03-23T10:36:20;2.95;;;1.20;;
15012;SDS011;7603;49.432;11.418;2024-03-23T10:38:46;0.88;;;0.70;;
15012;SDS011;7603;49.432;11.418;2024-03-23T10:41:14;0.73;;;0.73;;
15012;SDS011;7603;49.432;11.418;2024-03-23T10:43:40;0.40;;;0.40;;
15012;SDS011;7603;49.432;11.418;2024-03-23T10:46:07;5.75;;;1.77;;
15012;SDS011;7603;49.432;11.418;2024-03-23T10:48:34;0.55;;;0.55;;
15012;SDS011;7603;49.432;11.418;2024-03-23T10:51:00;2.42;;;1.38;;
15012;SDS011;7603;49.432;11.418;2024-03-23T10:53:26;0.75;;;0.75;;
15012;SDS011;7603;49.432;11.418;2024-03-23T10:55:53;0.68;;;0.68;;
15012;SDS011;7603;49.432;11.418;2024-03-23T10:58:28;2.58;;;1.10;;
15012;SDS011;7603;49.432;11.418;2024-03-23T11:00:56;0.73;;;0.73;;
15012;SDS011;7603;49.432;11.418;2024-03-23T11:03:30;0.60;;;0.60;;
15012;SDS011;7603;49.432;11.418;2024-03-23T11:06:05;0.90;;;0.90;;
15012;SDS011;7603;49.432;11.418;2024-03-23T11:08:35;0.90;;;0.90;;
15012;SDS011;7603;49.432;11.418;2024-03-23T11:11:17;0.43;;;0.43;;
15012;SDS011;7603;49.432;11.418;2024-03-23T11:13:47;0.40;;;0.40;;
15012;SDS011;7603;49.432;11.418;2024-03-23T11:16:21;0.60;;;0.60;;
15012;SDS011;7603;49.432;11.418;2024-03-23T11:18:52;0.30;;;0.30;;
15012;SDS011;7603;49.432;11.418;2024-03-23T11:22:04;0.55;;;0.55;;
15012;SDS011;7603;49.432;11.418;2024-03-23T11:24:21;0.40;;;0.40;;
15012;SDS011;7603;49.432;11.418;2024-03-23T11:26:48;0.50;;;0.50;;
15012;SDS011;7603;49.432;11.418;2024-03-23T11:29:14;0.30;;;0.30;;
15012;SDS011;7603;49.432;11.418;2024-03-23T11:31:51;0.38;;;0.38;;
15012;SDS011;7603;49.432;11.418;2024-03-23T11:34:18;0.50;;;0.50;;
15012;SDS011;7603;49.432;11.418;2024-03-23T11:36:45;0.60;;;0.60;;
15012;SDS011;7603;49.432;11.418;2024-03-23T11:39:12;0.60;;;0.60;;
15012;SDS011;7603;49.432;11.418;2024-03-23T11:41:49;0.77;;;0.77;;
15012;SDS011;7603;49.432;11.418;2024-03-23T11:44:19;0.50;;;0.50;;
15012;SDS011;7603;49.432;11.418;2024-03-23T12:30:18;5.45;;;1.83;;
15012;SDS011;7603;49.432;11.418;2024-03-23T12:32:44;1.45;;;1.38;;
15012;SDS011;7603;49.432;11.418;2024-03-23T12:35:10;4.40;;;1.42;;
15012;SDS011;7603;49.432;11.418;2024-03-23T12:37:36;1.98;;;1.63;;
15012;SDS011;7603;49.432;11.418;2024-03-23T12:40:02;3.83;;;1.83;;
15012;SDS011;7603;49.432;11.418;2024-03-23T12:42:29;2.78;;;2.42;;
15012;SDS011;7603;49.432;11.418;2024-03-23T12:44:54;0.60;;;0.60;;
15012;SDS011;7603;49.432;11.418;2024-03-23T12:47:20;2.22;;;1.55;;
15012;SDS011;7603;49.432;11.418;2024-03-23T12:49:46;0.80;;;0.80;;
15012;SDS011;7603;49.432;11.418;2024-03-23T12:52:14;0.90;;;0.90;;
15012;SDS011;7603;49.432;11.418;2024-03-23T12:54:39;0.85;;;0.82;;
15012;SDS011;7603;49.432;11.418;2024-03-23T12:57:05;0.65;;;0.63;;
15012;SDS011;7603;49.432;11.418;2024-03-23T12:59:31;1.17;;;1.17;;
15012;SDS011;7603;49.432;11.418;2024-03-23T13:01:57;0.95;;;0.95;;
15012;SDS011;7603;49.432;11.418;2024-03-23T13:04:23;0.95;;;0.95;;
15012;SDS011;7603;49.432;11.418;2024-03-23T13:06:48;0.68;;;0.68;;
15012;SDS011;7603;49.432;11.418;2024-03-23T13:09:14;1.20;;;1.10;;
15012;SDS011;7603;49.432;11.418;2024-03-23T13:11:40;1.17;;;1.17;;
15012;SDS011;7603;49.432;11.418;2024-03-23T13:14:05;0.70;;;0.70;;
15012;SDS011;7603;49.432;11.418;2024-03-23T13:16:31;0.70;;;0.70;;
15012;SDS011;7603;49.432;11.418;2024-03-23T13:18:57;1.15;;;1.05;;
15012;SDS011;7603;49.432;11.418;2024-03-23T13:21:22;2.88;;;1.13;;
15012;SDS011;7603;49.432;11.418;2024-03-23T13:23:48;0.80;;;0.80;;
15012;SDS011;7603;49.432;11.418;2024-03-23T13:26:15;1.17;;;1.08;;
15012;SDS011;7603;49.432;11.418;2024-03-23T13:28:41;0.88;;;0.88;;
15012;SDS011;7603;49.432;11.418;2024-03-23T13:31:07;1.70;;;1.45;;
15012;SDS011;7603;49.432;11.418;2024-03-23T13:33:33;1.63;;;1.52;;
15012;SDS011;7603;49.432;11.418;2024-03-23T13:35:59;2.50;;;1.55;;
15012;SDS011;7603;49.432;11.418;2024-03-23T13:38:25;2.28;;;1.70;;
15012;SDS011;7603;49.432;11.418;2024-03-23T13:40:54;1.27;;;0.90;;
15012;SDS011;7603;49.432;11.418;2024-03-23T13:43:22;2.45;;;1.30;;
15012;SDS011;7603;49.432;11.418;2024-03-23T13:45:48;9.23;;;1.98;;
15012;SDS011;7603;49.432;11.418;2024-03-23T13:48:17;1.50;;;1.40;;
15012;SDS011;7603;49.432;11.418;2024-03-23T13:50:44;2.05;;;1.20;;
15012;SDS011;7603;49.432;11.418;2024-03-23T13:53:12;4.25;;;1.40;;
15012;SDS011;7603;49.432;11.418;2024-03-23T13:55:43;1.45;;;1.40;;
15012;SDS011;7603;49.432;11.418;2024-03-23T13:58:13;5.78;;;1.38;;
15012;SDS011;7603;49.432;11.418;2024-03-23T14:00:39;4.32;;;1.55;;
15012;SDS011;7603;49.432;11.418;2024-03-23T14:03:04;1.05;;;1.05;;
15012;SDS011;7603;49.432;11.418;2024-03-23T14:05:30;3.15;;;1.45;;
15012;SDS011;7603;49.432;11.418;2024-03-23T14:07:56;1.73;;;0.75;;
15012;SDS011;7603;49.432;11.418;2024-03-23T14:10:22;2.80;;;1.83;;
15012;SDS011;7603;49.432;11.418;2024-03-23T14:12:48;0.90;;;0.90;;
15012;SDS011;7603;49.432;11.418;2024-03-23T14:15:14;1.20;;;1.20;;
15012;SDS011;7603;49.432;11.418;2024-03-23T14:17:39;1.45;;;1.35;;
15012;SDS011;7603;49.432;11.418;2024-03-23T14:20:05;0.50;;;0.50;;
15012;SDS011;7603;49.432;11.418;2024-03-23T14:22:34;0.70;;;0.70;;
15012;SDS011;7603;49.432;11.418;2024-03-23T14:24:59;0.40;;;0.40;;
15012;SDS011;7603;49.432;11.418;2024-03-23T14:27:25;0.60;;;0.60;;
15012;SDS011;7603;49.432;11.418;2024-03-23T14:29:51;0.65;;;0.65;;
15012;SDS011;7603;49.432;11.418;2024-03-23T14:32:17;2.15;;;0.68;;
15012;SDS011;7603;49.432;11.418;2024-03-23T14:34:42;0.50;;;0.50;;
15012;SDS011;7603;49.432;11.418;2024-03-23T14:37:08;0.75;;;0.68;;
15012;SDS011;7603;49.432;11.418;2024-03-23T14:39:34;0.52;;;0.52;;
15012;SDS011;7603;49.432;11.418;2024-03-23T14:42:02;0.50;;;0.50;;
15012;SDS011;7603;49.432;11.418;2024-03-23T14:44:28;1.20;;;0.80;;
15012;SDS011;7603;49.432;11.418;2024-03-23T14:46:54;0.73;;;0.50;;
15012;SDS011;7603;49.432;11.418;2024-03-23T14:49:22;1.08;;;1.05;;
15012;SDS011;7603;49.432;11.418;2024-03-23T14:51:49;0.60;;;0.60;;
15012;SDS011;7603;49.432;11.418;2024-03-23T14:54:15;0.95;;;0.95;;
15012;SDS011;7603;49.432;11.418;2024-03-23T14:56:41;0.65;;;0.65;;
15012;SDS011;7603;49.432;11.418;2024-03-23T14:59:06;1.13;;;0.75;;
15012;SDS011;7603;49.432;11.418;2024-03-23T15:01:32;0.52;;;0.52;;
15012;SDS011;7603;49.432;11.418;2024-03-23T15:03:59;0.82;;;0.65;;
15012;SDS011;7603;49.432;11.418;2024-03-23T15:06:25;0.52;;;0.52;;
15012;SDS011;7603;49.432;11.418;2024-03-23T15:08:51;0.40;;;0.40;;
15012;SDS011;7603;49.432;11.418;2024-03-23T15:11:16;0.43;;;0.43;;
15012;SDS011;7603;49.432;11.418;2024-03-23T15:13:44;0.95;;;0.95;;
15012;SDS011;7603;49.432;11.418;2024-03-23T15:16:16;1.08;;;0.93;;
15012;SDS011;7603;49.432;11.418;2024-03-23T15:18:45;0.68;;;0.68;;
15012;SDS011;7603;49.432;11.418;2024-03-23T15:21:11;0.40;;;0.40;;
15012;SDS011;7603;49.432;11.418;2024-03-23T15:23:37;1.00;;;0.98;;
15012;SDS011;7603;49.432;11.418;2024-03-23T15:26:03;3.83;;;0.73;;
15012;SDS011;7603;49.432;11.418;2024-03-23T15:28:31;0.38;;;0.38;;
15012;SDS011;7603;49.432;11.418;2024-03-23T15:31:07;0.70;;;0.70;;
15012;SDS011;7603;49.432;11.418;2024-03-23T15:33:34;0.50;;;0.50;;
15012;SDS011;7603;49.432;11.418;2024-03-23T15:36:01;0.52;;;0.52;;
15012;SDS011;7603;49.432;11.418;2024-03-23T15:38:27;1.65;;;1.15;;
15012;SDS011;7603;49.432;11.418;2024-03-23T15:40:54;1.95;;;1.00;;
15012;SDS011;7603;49.432;11.418;2024-03-23T15:43:20;1.13;;;1.10;;
15012;SDS011;7603;49.432;11.418;2024-03-23T15:45:59;0.73;;;0.73;;
15012;SDS011;7603;49.432;11.418;2024-03-23T15:48:27;0.63;;;0.63;;
15012;SDS011;7603;49.432;11.418;2024-03-23T15:50:57;1.38;;;0.95;;
15012;SDS011;7603;49.432;11.418;2024-03-23T15:53:24;0.73;;;0.73;;
15012;SDS011;7603;49.432;11.418;2024-03-23T15:56:03;0.80;;;0.80;;
15012;SDS011;7603;49.432;11.418;2024-03-23T15:58:30;0.40;;;0.40;;
15012;SDS011;7603;49.432;11.418;2024-03-23T16:00:58;0.80;;;0.80;;
15012;SDS011;7603;49.432;11.418;2024-03-23T16:03:25;0.57;;;0.57;;
15012;SDS011;7603;49.432;11.418;2024-03-23T16:05:58;1.10;;;0.57;;
15012;SDS011;7603;49.432;11.418;2024-03-23T16:08:25;0.70;;;0.70;;
15012;SDS011;7603;49.432;11.418;2024-03-23T16:10:52;0.50;;;0.50;;
15012;SDS011;7603;49.432;11.418;2024-03-23T16:13:19;0.50;;;0.50;;
15012;SDS011;7603;49.432;11.418;2024-03-23T16:15:45;0.47;;;0.47;;
15012;SDS011;7603;49.432;11.418;2024-03-23T16:18:20;0.68;;;0.68;;
15012;SDS011;7603;49.432;11.418;2024-03-23T16:23:21;6.60;;;0.70;;
15012;SDS011;7603;49.432;11.418;2024-03-23T16:25:52;0.35;;;0.35;;
15012;SDS011;7603;49.432;11.418;2024-03-23T16:28:27;1.55;;;1.25;;
15012;SDS011;7603;49.432;11.418;2024-03-23T16:30:55;0.45;;;0.45;;
15012;SDS011;7603;49.432;11.418;2024-03-23T16:33:26;0.43;;;0.43;;
15012;SDS011;7603;49.432;11.418;2024-03-23T16:35:56;0.63;;;0.63;;
15012;SDS011;7603;49.432;11.418;2024-03-23T16:38:26;0.70;;;0.70;;
15012;SDS011;7603;49.432;11.418;2024-03-23T16:40:56;0.77;;;0.77;;
15012;SDS011;7603;49.432;11.418;2024-03-23T16:43:24;0.75;;;0.75;;
15012;SDS011;7603;49.432;11.418;2024-03-23T16:45:54;0.77;;;0.77;;